Time;durP1;ratioP1;P1;durP2;ratioP2;P2;SDS_P1;SDS_P2;PMS_P1;PMS_P2;Temp;Humidity;BMP_temperature;BMP_pressure;BME280_temperature;BME280_humidity;BME280_pressure;Samples;Min_cycle;Max_cycle;Signal;HPM_P1;HPM_P2
2021/11/18 00:01:51;;;;;;;25.20;14.23;;;;;;;6.57;80.50;101054.19;5040729;28;20033;-63
2021/11/18 00:04:30;;;;;;;27.35;15.20;;;;;;;6.56;80.81;101055.91;5075782;28;20037;-63
2021/11/18 00:07:03;;;;;;;27.58;14.82;;;;;;;6.55;80.55;101062.72;5075682;28;20133;-62
2021/11/18 00:09:46;;;;;;;32.00;14.35;;;;;;;6.57;80.60;101059.34;5057924;28;20051;-62
2021/11/18 00:12:25;;;;;;;27.10;15.18;;;;;;;6.56;80.88;101058.47;5075769;28;20037;-62
2021/11/18 00:15:08;;;;;;;28.30;14.18;;;;;;;6.57;80.46;101057.69;5057852;28;20106;-63
2021/11/18 00:17:44;;;;;;;29.92;14.35;;;;;;;6.55;80.92;101052.44;5057686;28;20055;-62
2021/11/18 00:20:18;;;;;;;23.88;14.05;;;;;;;6.55;81.05;101062.72;5075501;28;20032;-62
2021/11/18 00:22:57;;;;;;;30.85;16.60;;;;;;;6.55;80.65;101061.88;5075442;28;20087;-63
2021/11/18 00:25:26;;;;;;;34.00;16.02;;;;;;;6.55;80.83;101052.44;5057504;28;20036;-62
2021/11/18 00:28:03;;;;;;;24.50;14.52;;;;;;;6.55;81.01;101072.16;5040729;28;20033;-63
2021/11/18 00:30:40;;;;;;;34.03;16.15;;;;;;;6.54;80.83;101070.41;5057965;28;20032;-63
2021/11/18 00:33:13;;;;;;;28.20;15.10;;;;;;;6.54;80.95;101068.69;5075104;28;20040;-62
2021/11/18 00:35:49;;;;;;;34.22;17.75;;;;;;;6.54;80.88;101060.97;5075126;28;20399;-63
2021/11/18 00:38:21;;;;;;;34.35;15.85;;;;;;;6.53;80.95;101042.88;5040030;28;20120;-63
2021/11/18 00:43:22;;;;;;;41.33;18.38;;;;;;;6.52;81.42;101046.25;5132152;27;20195;-63
2021/11/18 00:45:56;;;;;;;30.38;17.08;;;;;;;6.52;80.85;101046.25;5096792;28;20032;-63
2021/11/18 00:48:28;;;;;;;49.63;18.92;;;;;;;6.52;80.67;101043.69;5113520;28;20059;-63
2021/11/18 00:51:15;;;;;;;36.33;18.13;;;;;;;6.52;80.88;101046.25;5132065;28;20051;-62
2021/11/18 00:53:53;;;;;;;38.10;18.27;;;;;;;6.51;80.38;101044.47;5113938;28;20036;-63
2021/11/18 00:56:28;;;;;;;30.75;18.20;;;;;;;6.51;80.80;101060.84;5113589;28;20088;-64
2021/11/18 00:59:03;;;;;;;36.33;18.65;;;;;;;6.52;80.92;101061.72;5113220;28;20035;-63
2021/11/18 01:01:46;;;;;;;39.17;18.33;;;;;;;6.51;80.92;101066.00;5113276;28;20057;-63
2021/11/18 01:04:21;;;;;;;40.75;20.55;;;;;;;6.51;80.59;101071.13;5131784;28;20039;-62
2021/11/18 01:06:52;;;;;;;34.97;17.05;;;;;;;6.51;80.76;101073.72;5113403;28;20031;-63
2021/11/18 01:09:26;;;;;;;36.78;20.30;;;;;;;6.51;80.51;101071.13;5131456;28;20046;-62
2021/11/18 01:11:57;;;;;;;36.10;20.73;;;;;;;6.51;80.88;101076.28;5112973;28;20043;-63
2021/11/18 01:14:29;;;;;;;41.10;21.75;;;;;;;6.51;80.81;101075.38;5095860;28;20058;-63
2021/11/18 01:17:06;;;;;;;37.38;19.60;;;;;;;6.51;81.06;101072.81;5095932;28;20136;-63
2021/11/18 01:19:42;;;;;;;43.45;20.88;;;;;;;6.51;80.90;101076.28;5096476;28;20031;-63
2021/11/18 01:22:19;;;;;;;;;;;;;;;6.49;80.88;101070.19;5113115;28;20119;-63
2021/11/18 01:24:50;;;;;;;37.05;21.73;;;;;;;6.49;80.33;101084.72;5130554;28;19920;-63
2021/11/18 01:27:29;;;;;;;41.70;22.08;;;;;;;6.48;80.74;101083.88;5147089;27;20035;-63
2021/11/18 01:30:08;;;;;;;40.67;22.58;;;;;;;6.48;80.65;101096.75;5131300;28;20039;-62
2021/11/18 01:32:40;;;;;;;49.78;22.02;;;;;;;6.49;80.74;101106.25;5131308;28;20046;-62
2021/11/18 01:35:11;;;;;;;40.55;21.40;;;;;;;6.48;80.72;101108.72;5095842;28;20448;-62
2021/11/18 01:37:48;;;;;;;38.42;21.38;;;;;;;6.48;80.85;101107.03;5095345;28;20039;-63
2021/11/18 01:40:26;;;;;;;43.08;22.10;;;;;;;6.48;80.96;101106.13;5130872;28;20126;-63
2021/11/18 01:42:59;;;;;;;42.50;22.48;;;;;;;6.48;80.63;101103.56;5108820;28;20055;-63
2021/11/18 01:45:32;;;;;;;43.75;21.83;;;;;;;6.47;81.06;101117.25;5109306;28;20064;-63
2021/11/18 01:48:08;;;;;;;40.63;23.45;;;;;;;6.46;80.42;101124.09;5142763;27;20028;-63
2021/11/18 01:50:38;;;;;;;41.10;22.65;;;;;;;6.45;80.62;101114.59;5108785;28;20036;-62
2021/11/18 01:53:25;;;;;;;46.55;24.10;;;;;;;6.44;80.70;101109.41;5086891;28;20403;-63
2021/11/18 01:55:56;;;;;;;40.42;22.73;;;;;;;6.43;80.79;101094.75;5095215;28;20089;-63
2021/11/18 01:58:24;;;;;;;46.28;22.92;;;;;;;6.39;80.77;101094.59;5095459;28;20122;-62
2021/11/18 02:00:59;;;;;;;44.45;24.67;;;;;;;6.40;80.80;101098.03;5096544;28;20036;-62
2021/11/18 02:03:25;;;;;;;47.95;23.25;;;;;;;6.39;80.53;101107.47;5112048;28;20185;-62
2021/11/18 02:06:15;;;;;;;35.42;22.83;;;;;;;6.39;80.66;101112.63;5095117;28;20087;-62
2021/11/18 02:08:47;;;;;;;39.92;21.33;;;;;;;6.39;80.46;101117.75;5096317;28;20040;-62
2021/11/18 02:11:39;;;;;;;40.22;22.88;;;;;;;6.37;80.61;101114.22;5077951;28;20495;-63
2021/11/18 02:14:13;;;;;;;42.97;22.70;;;;;;;6.38;80.51;101112.56;5096282;28;20081;-63
2021/11/18 02:16:40;;;;;;;;;;;;;;;6.36;80.50;101119.31;5096492;28;20126;-62
2021/11/18 02:19:16;;;;;;;37.40;20.95;;;;;;;6.33;80.52;101114.88;5094649;28;19912;-63
2021/11/18 02:21:57;;;;;;;41.80;23.10;;;;;;;6.34;80.60;101118.34;5078137;28;20032;-62
2021/11/18 02:24:35;;;;;;;42.42;21.23;;;;;;;6.34;80.65;101115.78;5096276;28;20044;-63
2021/11/18 02:27:09;;;;;;;51.22;23.50;;;;;;;6.33;80.42;101121.72;5095953;28;20032;-63
2021/11/18 02:29:39;;;;;;;40.03;20.88;;;;;;;6.34;80.66;101120.91;5094944;28;20039;-63
2021/11/18 02:32:15;;;;;;;42.75;23.30;;;;;;;6.34;80.42;101123.50;5094776;28;20036;-62
2021/11/18 02:34:43;;;;;;;38.92;21.75;;;;;;;6.34;80.40;101126.06;5094767;28;20036;-62
2021/11/18 02:37:11;;;;;;;43.88;22.67;;;;;;;6.34;80.93;101134.66;5077369;28;20039;-63
2021/11/18 02:39:53;;;;;;;41.72;21.63;;;;;;;6.36;80.91;101139.91;5111710;27;20691;-63
2021/11/18 02:42:20;;;;;;;53.72;23.63;;;;;;;6.35;80.55;101148.44;5111190;28;20060;-62
2021/11/18 02:44:46;;;;;;;40.55;22.27;;;;;;;6.35;80.36;101149.31;5093140;28;20036;-63
2021/11/18 02:47:13;;;;;;;38.40;21.27;;;;;;;6.34;80.77;101157.84;5109969;28;20435;-63
2021/11/18 02:49:56;;;;;;;40.83;22.05;;;;;;;6.34;80.90;101157.84;5111463;28;20040;-63
2021/11/18 02:52:27;;;;;;;34.30;19.88;;;;;;;6.34;80.77;101139.81;5110317;28;20031;-63
2021/11/18 02:55:02;;;;;;;38.20;21.83;;;;;;;6.32;80.36;101138.84;5109749;28;20049;-63
2021/11/18 02:57:41;;;;;;;41.70;21.33;;;;;;;6.32;80.62;101140.56;5110074;28;20040;-62
2021/11/18 03:00:23;;;;;;;41.33;19.75;;;;;;;6.32;80.69;101143.13;5109768;28;20496;-64
2021/11/18 03:03:00;;;;;;;37.00;20.10;;;;;;;6.32;80.33;101133.69;5092767;28;20053;-63
2021/11/18 03:05:33;;;;;;;44.67;20.65;;;;;;;6.31;80.81;101134.50;5093696;28;20039;-63
2021/11/18 03:08:05;;;;;;;38.92;21.23;;;;;;;6.32;80.62;101137.97;5109697;28;20391;-62
2021/11/18 03:13:08;;;;;;;43.10;21.63;;;;;;;6.31;80.21;101142.22;5111373;27;20331;-62
2021/11/18 03:15:42;;;;;;;37.75;21.80;;;;;;;6.32;80.61;101135.41;5076934;28;20044;-63
2021/11/18 03:18:16;;;;;;;;;;;;;;;6.30;80.60;101130.19;5093395;28;20032;-62
2021/11/18 03:20:52;;;;;;;42.27;21.70;;;;;;;6.31;80.62;101139.66;5093633;28;19916;-62
2021/11/18 03:23:26;;;;;;;33.83;18.27;;;;;;;6.31;80.62;101129.34;5111278;28;20032;-62
2021/11/18 03:26:03;;;;;;;39.28;19.25;;;;;;;6.32;80.70;101128.56;5093093;28;20043;-62
2021/11/18 03:28:39;;;;;;;40.10;20.20;;;;;;;6.32;80.66;101120.81;5093068;28;20097;-63
2021/11/18 03:31:14;;;;;;;39.33;20.85;;;;;;;6.33;80.45;101125.16;5111130;28;20031;-62
2021/11/18 03:33:50;;;;;;;32.40;18.63;;;;;;;6.34;80.27;101128.66;5092943;28;20028;-63
2021/11/18 03:36:23;;;;;;;31.27;17.58;;;;;;;6.34;80.89;101126.06;5110522;28;20046;-63
2021/11/18 03:38:58;;;;;;;;;;;;;;;6.32;80.54;101131.13;5127271;28;20032;-62
2021/11/18 03:41:38;;;;;;;32.78;17.83;;;;;;;6.32;80.76;101132.84;5093445;28;19916;-63
2021/11/18 03:44:14;;;;;;;38.22;19.60;;;;;;;6.32;80.43;101136.28;5092886;28;20032;-62
2021/11/18 03:47:00;;;;;;;38.88;19.08;;;;;;;6.32;80.42;101128.56;5092850;28;20060;-62
2021/11/18 03:49:34;;;;;;;33.85;17.20;;;;;;;6.32;80.26;101125.09;5110752;28;20078;-62
2021/11/18 03:52:11;;;;;;;37.00;18.02;;;;;;;6.32;80.62;101140.56;5092599;28;20024;-62
2021/11/18 03:54:49;;;;;;;34.47;16.75;;;;;;;6.32;80.94;101135.41;5110703;28;20063;-62
2021/11/18 03:57:23;;;;;;;26.65;14.90;;;;;;;6.32;80.70;101136.28;5110860;28;20059;-62
2021/11/18 03:59:52;;;;;;;36.90;17.77;;;;;;;6.32;80.81;101130.25;5110562;28;20040;-62
2021/11/18 04:02:29;;;;;;;33.50;16.95;;;;;;;6.30;80.39;101132.78;5126418;28;20126;-63
2021/11/18 04:05:08;;;;;;;33.58;17.40;;;;;;;6.30;80.68;101134.44;5092110;28;20043;-63
2021/11/18 04:07:44;;;;;;;28.67;16.00;;;;;;;6.29;80.53;101130.09;5092536;28;20035;-62
2021/11/18 04:10:32;;;;;;;33.28;17.08;;;;;;;6.30;80.70;101142.16;5109180;28;20376;-63
2021/11/18 04:13:00;;;;;;;30.73;16.00;;;;;;;6.28;80.51;101136.94;5075491;28;20071;-62
2021/11/18 04:15:34;;;;;;;32.03;16.65;;;;;;;6.27;80.36;101148.06;5075058;28;20039;-62
2021/11/18 04:18:10;;;;;;;34.78;17.02;;;;;;;6.28;80.49;101149.81;5092299;28;20036;-62
2021/11/18 04:20:48;;;;;;;37.72;14.98;;;;;;;6.28;80.53;101146.34;5126116;28;20035;-62
2021/11/18 04:23:29;;;;;;;27.13;14.43;;;;;;;6.27;80.37;101148.06;5084227;28;20036;-62
2021/11/18 04:26:04;;;;;;;30.23;15.05;;;;;;;6.27;80.60;101152.31;5078329;28;20097;-62
2021/11/18 04:28:38;;;;;;;;;;;;;;;6.25;80.38;101144.50;5078697;28;20057;-63
2021/11/18 04:31:18;;;;;;;36.30;15.57;;;;;;;6.23;80.62;101138.41;5061322;28;19915;-63
2021/11/18 04:33:55;;;;;;;30.58;15.02;;;;;;;6.21;80.33;101140.91;5096612;28;20130;-62
2021/11/18 04:36:35;;;;;;;31.40;15.18;;;;;;;6.21;80.29;101138.31;5112150;28;20479;-62
2021/11/18 04:39:10;;;;;;;38.70;16.38;;;;;;;6.21;80.32;101137.44;5061572;28;20047;-63
2021/11/18 04:41:47;;;;;;;25.05;15.95;;;;;;;6.21;80.72;101134.84;5096228;28;20053;-62
2021/11/18 04:44:19;;;;;;;33.67;15.73;;;;;;;6.21;80.34;101143.47;5077868;28;20128;-63
2021/11/18 04:46:56;;;;;;;28.50;15.13;;;;;;;6.22;80.38;101150.41;5061397;28;20039;-63
2021/11/18 04:49:29;;;;;;;26.65;14.20;;;;;;;6.24;80.21;101155.59;5078364;28;20387;-63
2021/11/18 04:52:03;;;;;;;25.80;13.80;;;;;;;6.23;80.29;101157.28;5094910;28;20100;-63
2021/11/18 04:54:37;;;;;;;27.10;15.00;;;;;;;6.25;80.57;101154.81;5111926;28;20391;-62
2021/11/18 04:57:12;;;;;;;26.13;14.73;;;;;;;6.24;80.33;101163.34;5061191;28;20059;-63
2021/11/18 04:59:46;;;;;;;;;;;;;;;6.24;80.63;101158.19;5096247;28;20050;-62
2021/11/18 05:02:14;;;;;;;28.92;15.02;;;;;;;6.22;80.24;101158.13;5061424;28;19912;-62
2021/11/18 05:04:42;;;;;;;27.27;14.48;;;;;;;6.23;80.30;101156.41;5095737;28;20105;-62
2021/11/18 05:07:10;;;;;;;30.27;15.07;;;;;;;6.22;80.37;101163.28;5095663;28;20032;-62
2021/11/18 05:09:45;;;;;;;31.27;15.88;;;;;;;6.23;79.98;101171.88;5095722;28;20036;-62
2021/11/18 05:12:14;;;;;;;24.50;13.32;;;;;;;6.22;80.36;101162.38;5077475;28;20491;-63
2021/11/18 05:14:43;;;;;;;29.23;14.90;;;;;;;6.24;80.24;101165.91;5061048;28;20036;-63
2021/11/18 05:17:14;;;;;;;25.08;13.80;;;;;;;6.23;80.40;101167.59;5060568;28;20043;-63
2021/11/18 05:19:43;;;;;;;24.33;14.32;;;;;;;6.23;80.15;101162.44;5094059;28;20062;-63
2021/11/18 05:22:14;;;;;;;27.63;14.15;;;;;;;6.23;80.48;101165.00;5095349;28;20028;-63
2021/11/18 05:24:47;;;;;;;33.45;15.77;;;;;;;6.24;80.27;101150.47;5095303;28;20123;-63
2021/11/18 05:27:24;;;;;;;29.83;14.73;;;;;;;6.23;80.11;101151.25;5060329;28;20032;-62
2021/11/18 05:29:58;;;;;;;24.15;13.32;;;;;;;6.21;80.46;101158.94;5076916;28;20795;-62
2021/11/18 05:32:35;;;;;;;29.75;13.98;;;;;;;6.21;80.16;101158.94;5110737;28;20036;-62
2021/11/18 05:35:12;;;;;;;20.77;12.40;;;;;;;6.21;80.50;101152.88;5094395;28;20040;-63
2021/11/18 05:37:49;;;;;;;28.27;13.60;;;;;;;6.19;80.65;101154.47;5076674;28;20479;-63
2021/11/18 05:40:19;;;;;;;29.25;14.70;;;;;;;6.18;80.53;101151.03;5095232;28;20032;-63
2021/11/18 05:42:52;;;;;;;23.55;13.00;;;;;;;6.19;80.28;101162.19;5060086;28;20058;-62
2021/11/18 05:45:28;;;;;;;27.60;15.27;;;;;;;6.18;80.04;101163.00;5076902;28;20445;-62
2021/11/18 05:48:08;;;;;;;22.30;12.88;;;;;;;6.17;79.94;101157.00;5060095;28;20040;-62
2021/11/18 05:50:49;;;;;;;30.70;13.02;;;;;;;6.18;80.02;101158.75;5093344;28;20035;-62
2021/11/18 05:53:29;;;;;;;23.17;14.00;;;;;;;6.15;80.24;101157.72;5110742;28;20210;-62
2021/11/18 05:56:05;;;;;;;29.02;13.82;;;;;;;6.17;80.38;101158.66;5094840;28;20038;-62
2021/11/18 05:58:44;;;;;;;33.88;15.10;;;;;;;6.15;80.34;101150.88;5095449;28;20039;-62
2021/11/18 06:01:26;;;;;;;29.45;14.60;;;;;;;6.17;80.32;101153.50;5076776;28;20429;-63
2021/11/18 06:04:04;;;;;;;31.48;16.17;;;;;;;6.17;80.19;101150.94;5094593;28;20475;-62
2021/11/18 06:06:37;;;;;;;23.38;12.77;;;;;;;6.17;80.42;101162.13;5076204;28;20040;-62
2021/11/18 06:09:14;;;;;;;27.40;13.95;;;;;;;6.18;80.63;101168.16;5076699;28;20032;-62
2021/11/18 06:11:51;;;;;;;22.88;13.10;;;;;;;6.19;80.33;101162.19;5077044;28;20139;-62
2021/11/18 06:14:31;;;;;;;21.92;13.45;;;;;;;6.19;80.55;101169.94;5094900;28;20032;-62
2021/11/18 06:17:05;;;;;;;23.85;14.18;;;;;;;6.19;80.26;101173.41;5093138;28;20036;-62
2021/11/18 06:19:37;;;;;;;;;;;;;;;6.18;80.23;101169.06;5093266;28;20043;-62
2021/11/18 06:22:14;;;;;;;32.47;14.45;;;;;;;6.19;80.31;101169.94;5110087;28;19920;-62
2021/11/18 06:25:02;;;;;;;27.02;13.30;;;;;;;6.18;80.39;101169.06;5060036;28;20035;-62
2021/11/18 06:27:45;;;;;;;25.52;13.35;;;;;;;6.17;80.35;101174.09;5059316;28;20079;-63
2021/11/18 06:30:31;;;;;;;32.30;14.10;;;;;;;6.17;80.47;101177.59;5075796;28;20035;-63
2021/11/18 06:33:07;;;;;;;29.27;15.25;;;;;;;6.18;80.27;101178.44;5076456;28;20028;-63
2021/11/18 06:35:44;;;;;;;27.95;14.40;;;;;;;6.18;80.28;101178.44;5094124;28;20069;-63
2021/11/18 06:38:16;;;;;;;27.42;13.52;;;;;;;6.19;80.68;101182.81;5094294;28;20039;-63
2021/11/18 06:40:54;;;;;;;25.98;14.45;;;;;;;6.20;80.15;101187.16;5075979;28;20479;-63
2021/11/18 06:43:37;;;;;;;30.92;13.20;;;;;;;6.20;80.46;101187.16;5093846;28;20028;-63
2021/11/18 06:46:13;;;;;;;28.52;12.52;;;;;;;6.21;80.48;101199.22;5075699;28;20077;-63
2021/11/18 06:48:52;;;;;;;28.23;12.30;;;;;;;6.21;80.41;101199.22;5093301;28;20032;-63
2021/11/18 06:51:29;;;;;;;28.05;12.90;;;;;;;6.21;80.29;101202.69;5076081;28;20036;-63
2021/11/18 06:54:05;;;;;;;31.75;14.40;;;;;;;6.21;80.32;101194.06;5093814;28;20035;-63
2021/11/18 06:56:44;;;;;;;26.80;13.82;;;;;;;6.20;80.49;101192.28;5076166;28;20037;-63
2021/11/18 06:59:23;;;;;;;25.35;13.07;;;;;;;6.18;80.23;101181.94;5093542;28;20081;-62
2021/11/18 07:01:57;;;;;;;31.83;12.43;;;;;;;6.19;79.99;101182.81;5092595;28;20024;-63
2021/11/18 07:04:32;;;;;;;34.97;14.05;;;;;;;6.17;80.08;101185.31;5075715;28;20476;-63
2021/11/18 07:07:09;;;;;;;;;;;;;;;6.16;79.97;101186.09;5109851;28;20035;-63
2021/11/18 07:09:40;;;;;;;25.23;12.18;;;;;;;6.16;79.99;101180.06;5058579;28;19916;-63
2021/11/18 07:12:18;;;;;;;35.70;14.02;;;;;;;6.16;80.62;101180.06;5058833;28;20052;-62
2021/11/18 07:14:52;;;;;;;27.08;12.88;;;;;;;6.16;80.58;101182.63;5093826;28;20077;-64
2021/11/18 07:17:31;;;;;;;28.92;14.35;;;;;;;6.15;80.49;101189.47;5075620;28;20044;-63
2021/11/18 07:19:59;;;;;;;28.35;13.13;;;;;;;6.15;79.89;101179.19;5075700;28;20043;-62
2021/11/18 07:22:37;;;;;;;27.63;13.43;;;;;;;6.16;79.81;101173.25;5093877;28;20047;-63
2021/11/18 07:25:11;;;;;;;27.25;13.40;;;;;;;6.15;80.74;101174.03;5093352;28;20028;-63
2021/11/18 07:28:38;;;;;;;21.73;13.13;;;;;;;6.13;80.17;101179.94;5132119;27;20163;-62
2021/11/18 07:31:15;;;;;;;23.00;12.55;;;;;;;6.13;79.97;101185.06;5147852;27;20028;-62
2021/11/18 07:33:52;;;;;;;27.67;13.80;;;;;;;6.13;80.53;101191.09;5131726;28;20390;-62
2021/11/18 07:36:31;;;;;;;35.83;14.13;;;;;;;6.13;80.36;101198.81;5113575;28;20032;-64
2021/11/18 07:39:08;;;;;;;29.75;13.23;;;;;;;6.13;80.15;101197.94;5131918;28;20040;-63
2021/11/18 07:41:38;;;;;;;25.80;12.32;;;;;;;6.15;80.48;101197.22;5112135;28;20472;-62
2021/11/18 07:44:14;;;;;;;25.33;11.98;;;;;;;6.16;80.18;101205.81;5096213;28;20035;-62
2021/11/18 07:46:50;;;;;;;28.83;12.63;;;;;;;6.14;80.51;101203.16;5131578;28;20037;-63
2021/11/18 07:49:24;;;;;;;25.92;12.18;;;;;;;6.14;80.33;101210.00;5096840;28;20035;-63
2021/11/18 07:51:55;;;;;;;28.45;13.38;;;;;;;6.15;80.19;101209.22;5113316;28;20101;-63
2021/11/18 07:54:29;;;;;;;28.17;13.35;;;;;;;6.15;80.08;101214.34;5096318;28;20485;-63
2021/11/18 07:57:00;;;;;;;33.47;11.77;;;;;;;6.16;80.23;101213.53;5113554;28;20036;-63
2021/11/18 07:59:33;;;;;;;23.85;11.98;;;;;;;6.15;80.24;101214.34;5131302;28;20038;-63
2021/11/18 08:01:58;;;;;;;32.08;11.82;;;;;;;6.15;80.21;101212.66;5131328;28;20058;-63
2021/11/18 08:04:37;;;;;;;34.08;12.00;;;;;;;6.17;80.21;101215.28;5131517;28;20043;-63
2021/11/18 08:07:11;;;;;;;26.55;12.57;;;;;;;6.18;80.45;101217.97;5113184;28;20100;-63
2021/11/18 08:09:45;;;;;;;23.20;11.20;;;;;;;6.19;80.01;101213.69;5096215;28;20093;-62
2021/11/18 08:12:21;;;;;;;23.13;11.98;;;;;;;6.19;80.34;101209.44;5130902;28;20042;-63
2021/11/18 08:14:54;;;;;;;30.55;12.80;;;;;;;6.18;80.39;101207.66;5131299;28;20040;-63
2021/11/18 08:17:34;;;;;;;28.53;13.50;;;;;;;6.19;80.44;101195.66;5112609;28;20066;-63
2021/11/18 08:20:09;;;;;;;31.27;13.85;;;;;;;6.18;80.60;101205.09;5147109;27;20040;-62
2021/11/18 08:22:46;;;;;;;26.52;11.90;;;;;;;6.20;80.49;101213.78;5095504;28;20081;-62
2021/11/18 08:25:25;;;;;;;27.08;12.75;;;;;;;6.21;80.16;101213.00;5131084;28;20034;-63
2021/11/18 08:27:54;;;;;;;23.52;11.63;;;;;;;6.23;80.62;101218.19;5130579;28;20142;-62
2021/11/18 08:30:29;;;;;;;28.42;11.30;;;;;;;6.25;80.36;101232.91;5130792;28;20046;-63
2021/11/18 08:33:03;;;;;;;29.30;11.60;;;;;;;6.25;80.87;101220.03;5130512;28;20477;-62
2021/11/18 08:35:36;;;;;;;21.67;11.93;;;;;;;6.27;80.19;101225.28;5112453;28;20035;-63
2021/11/18 08:38:08;;;;;;;25.87;13.07;;;;;;;6.27;80.17;101224.38;5127428;28;20089;-63
2021/11/18 08:40:41;;;;;;;30.60;13.00;;;;;;;6.27;80.50;101243.31;5117141;28;20274;-63
2021/11/18 08:43:09;;;;;;;24.80;11.48;;;;;;;6.28;80.31;101239.03;5098727;28;20406;-63
2021/11/18 08:45:38;;;;;;;28.13;11.90;;;;;;;6.28;80.04;101242.50;5081285;28;20027;-63
2021/11/18 08:48:11;;;;;;;30.30;11.45;;;;;;;6.29;80.52;101240.81;5081865;28;20106;-63
2021/11/18 08:50:47;;;;;;;26.55;11.13;;;;;;;6.29;80.19;101246.84;5081518;28;20032;-63
2021/11/18 08:53:21;;;;;;;22.75;10.32;;;;;;;6.30;80.40;101240.91;5116748;28;20084;-63
2021/11/18 08:55:57;;;;;;;23.30;10.88;;;;;;;6.31;80.40;101254.66;5081519;28;20032;-63
2021/11/18 08:58:27;;;;;;;25.05;11.60;;;;;;;6.32;80.55;101270.16;5116364;28;20093;-63
2021/11/18 09:01:17;;;;;;;23.17;10.63;;;;;;;6.32;80.70;101271.88;5098175;28;20506;-63
2021/11/18 09:03:46;;;;;;;27.27;11.82;;;;;;;6.33;80.71;101266.78;5098447;28;20042;-62
2021/11/18 09:06:18;;;;;;;21.02;10.15;;;;;;;6.34;79.73;101266.00;5081104;28;20032;-63
2021/11/18 09:08:53;;;;;;;27.05;11.25;;;;;;;6.35;80.29;101267.75;5098441;28;20036;-62
2021/11/18 09:11:21;;;;;;;20.23;11.00;;;;;;;6.35;80.63;101272.91;5098377;28;20429;-62
2021/11/18 09:13:50;;;;;;;20.27;10.90;;;;;;;6.37;80.52;101280.75;5081439;28;20036;-62
2021/11/18 09:16:23;;;;;;;20.23;10.30;;;;;;;6.37;80.51;101283.31;5116487;28;20517;-63
2021/11/18 09:18:51;;;;;;;21.92;11.93;;;;;;;6.38;80.57;101280.81;5097998;28;20089;-63
2021/11/18 09:21:22;;;;;;;21.42;10.57;;;;;;;6.38;80.53;101275.66;5097674;28;20501;-62
2021/11/18 09:23:59;;;;;;;30.75;12.23;;;;;;;6.40;80.74;101278.28;5115872;28;20031;-62
2021/11/18 09:26:32;;;;;;;34.38;11.63;;;;;;;6.39;80.14;101269.69;5097592;28;20047;-63
2021/11/18 09:28:59;;;;;;;25.02;10.85;;;;;;;6.40;80.49;101274.06;5116045;28;20032;-63
2021/11/18 09:33:42;;;;;;;34.83;11.63;;;;;;;6.40;80.18;101258.59;5132111;27;20142;-62
2021/11/18 09:36:11;;;;;;;23.73;10.68;;;;;;;6.43;80.12;101270.75;5096598;28;20127;-63
2021/11/18 09:38:40;;;;;;;29.38;11.65;;;;;;;6.44;80.72;101271.66;5113858;28;20062;-63
2021/11/18 09:41:27;;;;;;;27.75;11.05;;;;;;;6.43;80.69;101268.16;5096490;28;20126;-63
2021/11/18 09:44:19;;;;;;;34.20;12.52;;;;;;;6.44;80.25;101266.50;5096563;28;20067;-62
2021/11/18 09:47:27;;;;;;;30.70;11.52;;;;;;;6.44;80.82;101263.91;5096191;28;20036;-62
2021/11/18 09:50:11;;;;;;;32.17;11.48;;;;;;;6.44;80.63;101269.06;5096257;28;20043;-62
2021/11/18 09:52:55;;;;;;;;;;;;;;;6.45;80.44;101263.13;5097116;28;20436;-63
2021/11/18 09:55:29;;;;;;;24.95;12.70;;;;;;;6.45;80.69;101273.41;5131381;28;19915;-64
2021/11/18 09:58:10;;;;;;;23.38;10.23;;;;;;;6.46;80.07;101275.19;5096630;28;20120;-63
2021/11/18 10:01:00;;;;;;;26.20;10.90;;;;;;;6.47;80.63;101287.22;5131463;28;20496;-63
2021/11/18 10:04:19;;;;;;;23.38;10.38;;;;;;;6.48;80.42;101276.13;5131676;28;20041;-62
2021/11/18 10:06:47;;;;;;;26.63;13.15;;;;;;;6.49;80.42;101280.47;5068990;28;20039;-62
2021/11/18 10:09:48;;;;;;;22.90;12.00;;;;;;;6.50;80.52;101285.72;5131090;28;20063;-63
2021/11/18 10:12:36;;;;;;;23.10;11.02;;;;;;;6.51;80.35;101287.50;5131139;28;20496;-62
2021/11/18 10:15:19;;;;;;;25.77;11.63;;;;;;;6.54;80.59;101285.06;5095963;28;20038;-62
2021/11/18 10:18:01;;;;;;;23.48;11.73;;;;;;;6.55;80.26;101291.97;5131564;28;20039;-63
2021/11/18 10:20:37;;;;;;;22.88;10.20;;;;;;;6.58;80.61;101293.84;5131517;28;20042;-63
2021/11/18 10:23:07;;;;;;;23.85;9.88;;;;;;;6.59;80.17;101280.16;5112948;28;20040;-62
2021/11/18 10:25:59;;;;;;;30.35;11.55;;;;;;;6.64;80.20;101288.13;5112321;28;20043;-62
2021/11/18 10:28:59;;;;;;;21.25;10.10;;;;;;;6.66;80.45;101286.53;5131113;28;20028;-63
2021/11/18 10:31:37;;;;;;;26.20;9.93;;;;;;;6.66;80.34;101286.53;5110074;28;20172;-63
2021/11/18 10:34:15;;;;;;;22.15;9.85;;;;;;;6.70;80.45;101289.34;5130776;28;20039;-63
2021/11/18 10:36:52;;;;;;;26.38;10.52;;;;;;;6.72;80.18;101296.25;5130719;28;20035;-62
2021/11/18 10:39:39;;;;;;;23.63;9.27;;;;;;;6.73;80.57;101298.91;5112421;28;20084;-62
2021/11/18 10:42:33;;;;;;;31.52;10.15;;;;;;;6.75;80.19;101296.41;5130793;28;20567;-62
2021/11/18 10:45:10;;;;;;;27.38;10.00;;;;;;;6.76;80.04;101304.22;5086570;28;20116;-62
2021/11/18 10:47:55;;;;;;;25.70;10.82;;;;;;;6.78;80.06;101301.72;5082258;28;20062;-63
2021/11/18 10:50:41;;;;;;;26.38;10.38;;;;;;;6.78;80.32;101300.03;5098696;28;20065;-63
2021/11/18 10:53:21;;;;;;;26.35;11.00;;;;;;;6.81;80.21;101307.94;5098368;28;20032;-63
2021/11/18 10:56:00;;;;;;;28.25;10.70;;;;;;;6.83;80.23;101303.75;5081937;28;20148;-63
2021/11/18 10:58:41;;;;;;;25.40;9.60;;;;;;;6.85;80.09;101298.66;5099105;28;20122;-63
2021/11/18 11:01:14;;;;;;;26.55;10.48;;;;;;;6.86;80.02;101303.88;5098514;28;20028;-62
2021/11/18 11:03:52;;;;;;;31.17;10.55;;;;;;;6.89;80.22;101307.41;5098805;28;20039;-63
2021/11/18 11:06:23;;;;;;;18.52;9.68;;;;;;;6.92;80.10;101303.34;5098055;28;20070;-62
2021/11/18 11:09:11;;;;;;;20.58;9.45;;;;;;;6.96;80.29;101294.06;5132604;27;20082;-63
2021/11/18 11:12:15;;;;;;;25.05;10.02;;;;;;;7.00;80.33;101288.25;5081302;28;20122;-63
2021/11/18 11:15:03;;;;;;;32.25;10.93;;;;;;;7.01;80.33;101288.31;5081627;28;20102;-63
2021/11/18 11:17:53;;;;;;;19.27;10.00;;;;;;;7.04;79.96;101285.00;5116269;28;20035;-62
2021/11/18 11:20:42;;;;;;;27.15;10.40;;;;;;;7.06;79.82;101279.94;5081037;28;20427;-63
2021/11/18 11:23:33;;;;;;;18.77;8.68;;;;;;;7.06;80.15;101288.53;5098383;28;20089;-62
2021/11/18 11:26:19;;;;;;;16.60;7.47;;;;;;;7.09;80.13;101280.06;5114699;28;20035;-63
2021/11/18 11:29:18;;;;;;;21.65;10.48;;;;;;;7.09;79.86;101274.91;5080701;28;20490;-62
2021/11/18 11:32:11;;;;;;;23.02;8.50;;;;;;;7.11;80.16;101273.28;5094323;28;20052;-63
2021/11/18 11:34:51;;;;;;;16.67;7.57;;;;;;;7.12;80.33;101272.50;5095534;28;20035;-63
2021/11/18 11:37:38;;;;;;;20.52;8.10;;;;;;;7.14;79.98;101271.78;5094592;28;20476;-62
2021/11/18 11:40:09;;;;;;;22.33;8.35;;;;;;;7.15;80.10;101264.91;5095734;28;20043;-62
2021/11/18 11:43:08;;;;;;;24.52;8.38;;;;;;;7.19;79.64;101263.38;5077216;28;20131;-63
2021/11/18 11:46:12;;;;;;;22.67;7.70;;;;;;;7.21;80.11;101264.31;5076941;28;20028;-63
2021/11/18 11:48:40;;;;;;;23.27;8.77;;;;;;;7.22;80.07;101255.78;5095429;28;20093;-63
2021/11/18 11:51:32;;;;;;;21.48;7.72;;;;;;;7.24;80.25;101256.75;5094144;28;20028;-63
2021/11/18 11:54:35;;;;;;;27.67;9.32;;;;;;;7.26;80.14;101255.13;5077789;28;20044;-63
2021/11/18 11:57:07;;;;;;;25.67;8.40;;;;;;;7.27;79.88;101252.63;5093580;28;20131;-62
2021/11/18 11:59:38;;;;;;;18.77;7.53;;;;;;;7.30;80.20;101244.16;5076923;28;20040;-62
2021/11/18 12:02:26;;;;;;;16.42;7.22;;;;;;;7.31;80.07;101249.38;5095039;28;20040;-63
2021/11/18 12:05:07;;;;;;;14.70;6.95;;;;;;;7.31;80.19;101249.38;5094709;28;20419;-62
2021/11/18 12:07:53;;;;;;;25.52;8.25;;;;;;;7.32;80.09;101256.31;5093881;28;20064;-63
2021/11/18 12:10:38;;;;;;;15.13;6.00;;;;;;;7.32;79.83;101251.16;5076692;28;20031;-63
2021/11/18 12:13:26;;;;;;;20.80;8.10;;;;;;;7.33;80.31;101249.44;5094994;28;20043;-63